EGACEGPE

Guest
Details From EGAC - Belfast City
To EGPE - Inverness
Flight Number -
Tags generated
Created
Modified
Stats Distance 186 nm / 345 km
Max Altitude 19,600 ft / 5,974 m
Waypoints 3
Social Downloads 1
Likes 0
Share VATSIM

Download

Looking for another format? Having issues loading an existing format? Contact us
Advertisement - Login to hide

Notes

Basic altitude profile: - Ascent Rate: 700ft/min - Ascent Speed: 160kts - Cruise Altitude: 5000ft - Cruise Speed: 160kts - Descent Rate: 1500ft/min - Descent Speed: 250kts Options: - Use NATs: no - Use PACOTS: no - Use low airways: yes - Use high airways: no

Route

EGAC FYNER EGPE

ID Type Via Altitude Latitude Longitude Leg Dist Tot Dist Heading (true) Name
O EGAC APT - 0 ft / 0 m 54.61811˚ -5.87258˚ - 0 nm - Belfast City
FYNER FIX - 19,600 ft / 5,974 m 56.05111˚ -5.11404˚ 89 nm 89 nm 16° / 17° -
O EGPE APT - 0 ft / 0 m 57.54304˚ -4.05094˚ 96 nm 186 nm 21° / 22° Inverness

Altitude Profile

Advertisement - Login to hide

Weather


0- 5 10 15 20 25 30 35+ Temperature / ° C

Clouds and Precipitation
Forecast for 2017-12-16 06:00 UTC. Updated 7 minutes ago

Ground ~20,000 ft ~40,000 ft Winds

EGAC

Details ICAO EGAC (BHD)
Name Belfast City
Region United Kingdom
Timezone Europe/London (UTC+0.0)
Stats Elevation 15 ft / 5 m (AMSL)
Location 54.618108° -5.872575°
Runways 1
Magnetic Variation 3.090° W

METAR

EGAC 160520Z AUTO 26011KT 9999 NCD 04/01 Q1015

Decode

TAF

Not found

Departure Runways

ID Width Length Bearing (true) Bearing (mag) Surface Threshold Offset Overrun Length
04 148 ft / 45 m 6,009 ft / 1,832 m 34.93° 38.02° Asphalt 302 ft / 92 m 0 ft / 0 m
22 148 ft / 45 m 6,009 ft / 1,832 m 214.94° 218.03° Asphalt 0 ft / 0 m 0 ft / 0 m

EGPE

Details ICAO EGPE (INV)
Name Inverness
Region United Kingdom
Timezone Europe/London (UTC+0.0)
Stats Elevation 31 ft / 9 m (AMSL)
Location 57.543039° -4.050944°
Runways 2
Magnetic Variation 2.880° W

METAR

EGPE 160520Z 25007KT 9999 FEW042 00/M01 Q1013

Decode

TAF

Not found

Destination Runways

ID Width Length Bearing (true) Bearing (mag) Surface Threshold Offset Overrun Length
05 151 ft / 46 m 6,179 ft / 1,883 m 49.39° 52.27° Asphalt 220 ft / 67 m 0 ft / 0 m
12 59 ft / 18 m 2,299 ft / 701 m 109.63° 112.51° Asphalt 0 ft / 0 m 0 ft / 0 m
23 151 ft / 46 m 6,179 ft / 1,883 m 229.41° 232.29° Asphalt 0 ft / 0 m 0 ft / 0 m
30 59 ft / 18 m 2,299 ft / 701 m 289.64° 292.52° Asphalt 0 ft / 0 m 0 ft / 0 m

Approach Navaids

Runway Type Ident Frequency Range Bearing (true) Bearing (mag) Slope Elevation
05 Localiser ILN 108.50 MHz 18 nm / 33 km 49.42° 52.30° - 31 ft / 9 m (AMSL)
05 Glidescope ILN 108.50 MHz 10 nm / 19 km 49.40° 52.28° 3.00° 31 ft / 9 m (AMSL)
05 DME ILN 108.50 MHz 18 nm / 33 km - - - 43 ft / 13 m (AMSL)
23 Localiser IDX 108.50 MHz 18 nm / 33 km 229.39° 232.27° - 31 ft / 9 m (AMSL)
23 Glidescope IDX 108.50 MHz 10 nm / 19 km 229.40° 232.28° 3.00° 31 ft / 9 m (AMSL)
23 DME IDX 108.50 MHz 18 nm / 33 km - - - 43 ft / 13 m (AMSL)

Popular Alternatives